Time;durP1;ratioP1;P1;durP2;ratioP2;P2;SDS_P1;SDS_P2;PMS_P1;PMS_P2;Temp;Humidity;BMP_temperature;BMP_pressure;BME280_temperature;BME280_humidity;BME280_pressure;Samples;Min_cycle;Max_cycle;Signal;HPM_P1;HPM_P2
2022/09/26 00:01:10;;;;;;;8.10;6.03;;;;;;;;;;4980584;28;20447;-83
2022/09/26 00:03:37;;;;;;;7.15;5.85;;;;;;;;;;4982314;28;20453;-84
2022/09/26 00:06:05;;;;;;;10.30;5.95;;;;;;;;;;4984431;28;20442;-84
2022/09/26 00:08:33;;;;;;;8.90;5.63;;;;;;;;;;4983119;28;20415;-84
2022/09/26 00:11:01;;;;;;;10.55;5.18;;;;;;;;;;4980592;28;20482;-84
2022/09/26 00:13:28;;;;;;;8.63;5.55;;;;;;;;;;4984183;28;20489;-83
2022/09/26 00:15:55;;;;;;;11.23;6.38;;;;;;;;;;4983182;28;20933;-83
2022/09/26 00:18:22;;;;;;;10.23;5.88;;;;;;;;;;4983102;28;20421;-84
2022/09/26 00:20:48;;;;;;;8.40;5.70;;;;;;;;;;4983003;28;20435;-83
2022/09/26 00:23:15;;;;;;;10.90;6.30;;;;;;;;;;4981794;28;20430;-84
2022/09/26 00:25:46;;;;;;;10.13;6.00;;;;;;;;;;4983439;28;20439;-81
2022/09/26 00:28:12;;;;;;;8.88;5.38;;;;;;;;;;4982281;28;20481;-83
2022/09/26 00:30:39;;;;;;;8.10;5.83;;;;;;;;;;4983751;28;20434;-82
2022/09/26 00:33:06;;;;;;;10.07;6.10;;;;;;;;;;4980641;28;21998;-82
2022/09/26 00:35:32;;;;;;;10.77;5.75;;;;;;;;;;4980007;28;20442;-82
2022/09/26 00:37:58;;;;;;;8.82;5.65;;;;;;;;;;4981812;28;20438;-82
2022/09/26 00:40:26;;;;;;;8.90;5.90;;;;;;;;;;4983363;28;20444;-81
2022/09/26 00:42:55;;;;;;;7.88;6.03;;;;;;;;;;4983551;28;20932;-82
2022/09/26 00:45:22;;;;;;;8.07;5.67;;;;;;;;;;4982066;28;20438;-82
2022/09/26 00:47:56;;;;;;;8.80;6.00;;;;;;;;;;4978661;28;20423;-82
2022/09/26 00:50:25;;;;;;;8.93;6.43;;;;;;;;;;4982607;28;20532;-82
2022/09/26 00:52:53;;;;;;;10.35;6.05;;;;;;;;;;4983205;28;20440;-82
2022/09/26 00:55:21;;;;;;;10.20;5.70;;;;;;;;;;4983603;28;20466;-82
2022/09/26 00:57:50;;;;;;;7.45;5.72;;;;;;;;;;4979694;28;20435;-82
2022/09/26 01:00:18;;;;;;;9.30;5.80;;;;;;;;;;4981145;28;20984;-82
2022/09/26 01:02:47;;;;;;;7.68;5.80;;;;;;;;;;4981838;28;20429;-84
2022/09/26 01:05:15;;;;;;;10.02;5.88;;;;;;;;;;4983076;28;20931;-84
2022/09/26 01:07:43;;;;;;;10.07;6.10;;;;;;;;;;4983258;28;20427;-84
2022/09/26 01:10:10;;;;;;;9.82;6.10;;;;;;;;;;4980291;28;20439;-83
2022/09/26 01:12:37;;;;;;;7.47;5.70;;;;;;;;;;4979132;28;20485;-84
2022/09/26 01:15:05;;;;;;;9.40;5.95;;;;;;;;;;4959508;28;20432;-83
2022/09/26 01:17:33;;;;;;;8.88;5.85;;;;;;;;;;4965947;28;20460;-84
2022/09/26 01:20:08;;;;;;;7.05;6.03;;;;;;;;;;4981402;28;20436;-84
2022/09/26 01:22:58;;;;;;;7.47;5.60;;;;;;;;;;4979169;28;20496;-84
2022/09/26 01:25:31;;;;;;;8.63;5.13;;;;;;;;;;4978609;28;20529;-84
2022/09/26 01:28:06;;;;;;;8.85;5.55;;;;;;;;;;4981876;28;20442;-84
2022/09/26 01:30:37;;;;;;;5.70;5.10;;;;;;;;;;4981960;28;20440;-83
2022/09/26 01:33:12;;;;;;;10.67;5.73;;;;;;;;;;4982569;28;20436;-83
2022/09/26 01:35:52;;;;;;;6.97;4.90;;;;;;;;;;4980029;28;20449;-83
2022/09/26 01:38:23;;;;;;;7.68;5.80;;;;;;;;;;4980329;28;20432;-83
2022/09/26 01:41:06;;;;;;;9.60;5.63;;;;;;;;;;4982842;28;20439;-83
2022/09/26 01:43:35;;;;;;;7.93;5.90;;;;;;;;;;4986783;28;20934;-83
2022/09/26 01:46:08;;;;;;;9.00;5.90;;;;;;;;;;4984095;28;20516;-83
2022/09/26 01:48:38;;;;;;;7.87;5.53;;;;;;;;;;4983862;28;20418;-84
2022/09/26 01:51:08;;;;;;;11.95;5.90;;;;;;;;;;4988002;28;20434;-81
2022/09/26 01:53:36;;;;;;;8.07;6.00;;;;;;;;;;4986914;28;20430;-83
2022/09/26 01:56:05;;;;;;;10.50;6.40;;;;;;;;;;4986620;28;20446;-84
2022/09/26 01:58:33;;;;;;;7.80;5.90;;;;;;;;;;4986945;28;20526;-83
2022/09/26 02:01:02;;;;;;;6.00;5.40;;;;;;;;;;4984569;28;20541;-83
2022/09/26 02:03:31;;;;;;;8.20;5.33;;;;;;;;;;4984884;28;20425;-83
2022/09/26 02:06:00;;;;;;;7.10;5.25;;;;;;;;;;4985960;28;20440;-83
2022/09/26 02:08:29;;;;;;;8.15;5.70;;;;;;;;;;4985167;28;20472;-81
2022/09/26 02:10:59;;;;;;;6.93;5.80;;;;;;;;;;4985776;28;20931;-81
2022/09/26 02:13:30;;;;;;;10.40;6.00;;;;;;;;;;4984152;28;20426;-82
2022/09/26 02:15:58;;;;;;;8.15;6.10;;;;;;;;;;4985439;28;20443;-82
2022/09/26 02:18:29;;;;;;;9.13;6.23;;;;;;;;;;4984968;28;20526;-82
2022/09/26 02:21:01;;;;;;;8.25;5.78;;;;;;;;;;4983824;28;20517;-82
2022/09/26 02:23:27;;;;;;;8.52;6.10;;;;;;;;;;4986589;28;20453;-82
2022/09/26 02:25:54;;;;;;;8.00;6.22;;;;;;;;;;4985582;28;20434;-81
2022/09/26 02:28:20;;;;;;;8.93;5.90;;;;;;;;;;4984767;28;20420;-83
2022/09/26 02:30:48;;;;;;;9.02;5.93;;;;;;;;;;4966095;28;20424;-81
2022/09/26 02:33:14;;;;;;;11.52;6.50;;;;;;;;;;4983435;28;20519;-82
2022/09/26 02:35:56;;;;;;;6.00;5.40;;;;;;;;;;4985645;28;20432;-82
2022/09/26 02:38:25;;;;;;;9.00;5.85;;;;;;;;;;4983590;28;20424;-81
2022/09/26 02:40:56;;;;;;;8.05;5.50;;;;;;;;;;4983700;28;20818;-81
2022/09/26 02:43:37;;;;;;;6.75;5.68;;;;;;;;;;4985634;28;20445;-82
2022/09/26 02:46:08;;;;;;;10.07;5.50;;;;;;;;;;4984820;28;20781;-83
2022/09/26 02:48:48;;;;;;;10.87;5.80;;;;;;;;;;4984218;28;20459;-83
2022/09/26 02:51:20;;;;;;;6.53;5.70;;;;;;;;;;4982039;28;20439;-83
2022/09/26 02:53:56;;;;;;;10.13;6.05;;;;;;;;;;4981624;28;22002;-84
2022/09/26 02:56:28;;;;;;;6.90;5.37;;;;;;;;;;5015030;28;20477;-83
2022/09/26 02:58:58;;;;;;;11.80;5.90;;;;;;;;;;4985185;28;20924;-84
2022/09/26 03:01:28;;;;;;;7.20;5.20;;;;;;;;;;4983017;28;20494;-84
2022/09/26 03:03:59;;;;;;;7.28;5.25;;;;;;;;;;4981553;28;20507;-82
2022/09/26 03:06:29;;;;;;;8.27;5.50;;;;;;;;;;4983519;28;20430;-82
2022/09/26 03:08:58;;;;;;;7.88;5.70;;;;;;;;;;4984434;28;20946;-82
2022/09/26 03:11:27;;;;;;;9.40;5.70;;;;;;;;;;4982468;28;20432;-81
2022/09/26 03:13:54;;;;;;;8.98;5.82;;;;;;;;;;4983349;28;20432;-82
2022/09/26 03:16:21;;;;;;;7.63;5.85;;;;;;;;;;4984707;28;20432;-81
2022/09/26 03:18:51;;;;;;;8.50;5.53;;;;;;;;;;4980865;28;20437;-81
2022/09/26 03:21:18;;;;;;;6.40;5.40;;;;;;;;;;4985714;28;20462;-83
2022/09/26 03:23:45;;;;;;;7.75;5.32;;;;;;;;;;4985085;28;20426;-83
2022/09/26 03:26:15;;;;;;;8.02;5.57;;;;;;;;;;4981727;28;20500;-83
2022/09/26 03:28:42;;;;;;;10.23;5.30;;;;;;;;;;4980567;28;20431;-83
2022/09/26 03:31:08;;;;;;;6.00;4.90;;;;;;;;;;4982557;28;20428;-83
2022/09/26 03:33:34;;;;;;;8.20;5.35;;;;;;;;;;4982221;28;20769;-83
2022/09/26 03:36:04;;;;;;;5.80;5.20;;;;;;;;;;4982437;28;20438;-83
2022/09/26 03:38:30;;;;;;;10.20;5.53;;;;;;;;;;4983561;28;20434;-83
2022/09/26 03:40:57;;;;;;;6.10;5.50;;;;;;;;;;4984111;28;20468;-83
2022/09/26 03:43:26;;;;;;;9.57;5.63;;;;;;;;;;4983217;28;20507;-83
2022/09/26 03:45:53;;;;;;;6.00;4.90;;;;;;;;;;4982800;28;20435;-83
2022/09/26 03:48:20;;;;;;;6.68;5.00;;;;;;;;;;4981843;28;20443;-83
2022/09/26 03:50:46;;;;;;;7.90;5.70;;;;;;;;;;4982535;28;20910;-83
2022/09/26 03:53:13;;;;;;;9.93;5.75;;;;;;;;;;4981670;28;20808;-84
2022/09/26 03:55:39;;;;;;;5.85;5.15;;;;;;;;;;4983089;28;20430;-84
2022/09/26 03:58:06;;;;;;;7.73;5.30;;;;;;;;;;4982411;28;20430;-85
2022/09/26 04:00:34;;;;;;;7.00;5.35;;;;;;;;;;4984661;28;20932;-83
2022/09/26 04:03:02;;;;;;;6.80;5.50;;;;;;;;;;4982005;28;20426;-83
2022/09/26 04:05:29;;;;;;;8.77;5.65;;;;;;;;;;4984612;28;20488;-83
2022/09/26 04:07:56;;;;;;;6.93;5.63;;;;;;;;;;4982759;28;20482;-83
2022/09/26 04:10:23;;;;;;;6.45;5.30;;;;;;;;;;4982430;28;20944;-84
2022/09/26 04:12:49;;;;;;;7.30;5.50;;;;;;;;;;4981447;28;20454;-83
2022/09/26 04:15:16;;;;;;;9.23;6.00;;;;;;;;;;4983639;28;20428;-84
2022/09/26 04:17:43;;;;;;;6.10;5.50;;;;;;;;;;4981147;28;21202;-84
2022/09/26 04:20:10;;;;;;;10.30;6.18;;;;;;;;;;4980783;28;20448;-83
2022/09/26 04:22:37;;;;;;;10.73;5.70;;;;;;;;;;4980679;28;20415;-83
2022/09/26 04:25:03;;;;;;;7.88;5.50;;;;;;;;;;4983354;28;20545;-82
2022/09/26 04:27:29;;;;;;;6.80;5.27;;;;;;;;;;4983132;28;20414;-82
2022/09/26 04:29:57;;;;;;;9.35;5.65;;;;;;;;;;4982703;28;20437;-81
2022/09/26 04:32:23;;;;;;;9.07;5.68;;;;;;;;;;4980091;28;20450;-81
2022/09/26 04:34:51;;;;;;;8.32;6.07;;;;;;;;;;4980188;28;20452;-82
2022/09/26 04:37:19;;;;;;;7.77;5.80;;;;;;;;;;4982394;28;20598;-83
2022/09/26 04:39:49;;;;;;;9.10;5.93;;;;;;;;;;4983873;28;20537;-81
2022/09/26 04:42:16;;;;;;;9.40;5.82;;;;;;;;;;4981559;28;20482;-82
2022/09/26 04:44:42;;;;;;;9.18;6.50;;;;;;;;;;4983507;28;20430;-85
2022/09/26 04:47:10;;;;;;;8.10;6.05;;;;;;;;;;4979867;28;20431;-84
2022/09/26 04:49:36;;;;;;;6.72;5.82;;;;;;;;;;4982349;28;20431;-83
2022/09/26 04:52:04;;;;;;;10.57;6.30;;;;;;;;;;4984632;28;20460;-83
2022/09/26 04:54:30;;;;;;;10.20;6.15;;;;;;;;;;4981553;28;20433;-83
2022/09/26 04:56:59;;;;;;;7.35;6.10;;;;;;;;;;4983982;28;20441;-83
2022/09/26 04:59:25;;;;;;;10.30;6.97;;;;;;;;;;4979851;28;20435;-84
2022/09/26 05:01:53;;;;;;;7.28;5.90;;;;;;;;;;4984151;28;20441;-84
2022/09/26 05:04:21;;;;;;;6.97;6.00;;;;;;;;;;4979401;28;20511;-83
2022/09/26 05:06:47;;;;;;;7.43;5.72;;;;;;;;;;5013298;28;20431;-83
2022/09/26 05:09:16;;;;;;;7.13;5.50;;;;;;;;;;4980804;28;20434;-82
2022/09/26 05:11:42;;;;;;;7.85;5.72;;;;;;;;;;4982914;28;20444;-84
2022/09/26 05:14:09;;;;;;;8.98;5.50;;;;;;;;;;4983690;28;20431;-83
2022/09/26 05:16:37;;;;;;;7.47;4.97;;;;;;;;;;4983162;28;20438;-83
2022/09/26 05:19:04;;;;;;;8.30;5.10;;;;;;;;;;4985882;28;20514;-83
2022/09/26 05:21:32;;;;;;;7.32;4.70;;;;;;;;;;4987048;28;20840;-82
2022/09/26 05:26:45;;;;;;;8.10;4.72;;;;;;;;;;4987041;28;20443;-83
2022/09/26 05:29:11;;;;;;;6.68;4.95;;;;;;;;;;4985906;28;20438;-82
2022/09/26 05:31:38;;;;;;;9.82;4.60;;;;;;;;;;4987235;28;20442;-82
2022/09/26 05:34:06;;;;;;;8.30;4.88;;;;;;;;;;4986428;28;20515;-83
2022/09/26 05:36:32;;;;;;;6.50;4.97;;;;;;;;;;4985019;28;20435;-82
2022/09/26 05:38:59;;;;;;;8.00;4.70;;;;;;;;;;4986266;28;20434;-83
2022/09/26 05:41:28;;;;;;;6.97;5.70;;;;;;;;;;4986372;28;20517;-83
2022/09/26 05:43:56;;;;;;;8.00;4.97;;;;;;;;;;5001142;28;20422;-82
2022/09/26 05:46:23;;;;;;;5.20;4.70;;;;;;;;;;4984555;28;20442;-84
2022/09/26 05:48:49;;;;;;;9.27;5.82;;;;;;;;;;4984928;28;20590;-84
2022/09/26 05:51:17;;;;;;;7.57;4.82;;;;;;;;;;4984505;28;20430;-82
2022/09/26 05:53:45;;;;;;;10.00;5.40;;;;;;;;;;4983534;28;20423;-83
2022/09/26 05:56:12;;;;;;;9.00;5.70;;;;;;;;;;4986164;28;20430;-83
2022/09/26 05:58:39;;;;;;;7.30;5.15;;;;;;;;;;4985184;28;20488;-84
2022/09/26 06:01:08;;;;;;;11.10;5.95;;;;;;;;;;4985941;28;20435;-83
2022/09/26 06:03:36;;;;;;;8.00;5.80;;;;;;;;;;4985001;28;20433;-83
2022/09/26 06:06:04;;;;;;;8.32;5.93;;;;;;;;;;4986115;28;20460;-84
2022/09/26 06:08:31;;;;;;;9.48;6.00;;;;;;;;;;4985949;28;20428;-83
2022/09/26 06:11:02;;;;;;;8.20;5.85;;;;;;;;;;4986269;28;20414;-83
2022/09/26 06:13:28;;;;;;;10.30;6.60;;;;;;;;;;4984194;28;20503;-83
2022/09/26 06:15:56;;;;;;;10.50;6.68;;;;;;;;;;4985390;28;20423;-83
2022/09/26 06:18:24;;;;;;;13.88;6.97;;;;;;;;;;4985927;28;20420;-83
2022/09/26 06:20:51;;;;;;;12.88;7.60;;;;;;;;;;4983869;28;20445;-83
2022/09/26 06:23:17;;;;;;;12.35;6.75;;;;;;;;;;4984241;28;20437;-82
2022/09/26 06:25:45;;;;;;;9.73;7.57;;;;;;;;;;4984726;28;20453;-84
2022/09/26 06:28:11;;;;;;;11.43;7.90;;;;;;;;;;4983528;28;20432;-81
2022/09/26 06:30:38;;;;;;;9.32;8.13;;;;;;;;;;4983587;28;20424;-83
2022/09/26 06:33:04;;;;;;;13.60;8.32;;;;;;;;;;4982925;28;20426;-83
2022/09/26 06:35:32;;;;;;;13.32;8.38;;;;;;;;;;4985993;28;20420;-83
2022/09/26 06:37:59;;;;;;;11.38;8.10;;;;;;;;;;4983741;28;20918;-81
2022/09/26 06:40:25;;;;;;;9.43;7.65;;;;;;;;;;4982941;28;20956;-84
2022/09/26 06:42:54;;;;;;;11.13;7.95;;;;;;;;;;4983887;28;20424;-82
2022/09/26 06:45:21;;;;;;;10.55;8.52;;;;;;;;;;4983180;28;20916;-81
2022/09/26 06:47:47;;;;;;;10.50;8.43;;;;;;;;;;4982957;28;20486;-82
2022/09/26 06:50:14;;;;;;;11.55;8.95;;;;;;;;;;4984762;28;20435;-81
2022/09/26 06:52:42;;;;;;;10.90;8.40;;;;;;;;;;4981991;28;20767;-81
2022/09/26 06:55:10;;;;;;;13.15;8.90;;;;;;;;;;4985394;28;20514;-83
2022/09/26 06:57:38;;;;;;;13.82;8.88;;;;;;;;;;4981010;28;20423;-82
2022/09/26 07:00:05;;;;;;;12.88;9.05;;;;;;;;;;4983685;28;20427;-83
2022/09/26 07:02:32;;;;;;;14.98;9.70;;;;;;;;;;4983721;28;20418;-82
2022/09/26 07:05:01;;;;;;;12.85;9.30;;;;;;;;;;4986359;28;20438;-82
2022/09/26 07:07:27;;;;;;;14.45;9.35;;;;;;;;;;4981611;28;20424;-81
2022/09/26 07:09:56;;;;;;;14.43;9.63;;;;;;;;;;4984195;28;20438;-81
2022/09/26 07:12:23;;;;;;;11.70;8.73;;;;;;;;;;4980378;28;20844;-81
2022/09/26 07:14:50;;;;;;;13.82;9.90;;;;;;;;;;4985323;28;20440;-81
2022/09/26 07:17:16;;;;;;;12.70;9.40;;;;;;;;;;4981778;28;20440;-82
2022/09/26 07:19:43;;;;;;;13.50;9.35;;;;;;;;;;4987123;28;20421;-81
2022/09/26 07:22:13;;;;;;;13.40;9.82;;;;;;;;;;4983346;28;20440;-83
2022/09/26 07:24:40;;;;;;;13.95;9.80;;;;;;;;;;4985765;28;20436;-83
2022/09/26 07:27:09;;;;;;;11.30;9.63;;;;;;;;;;4984750;28;21580;-84
2022/09/26 07:29:35;;;;;;;15.80;10.10;;;;;;;;;;4983291;28;20422;-83
2022/09/26 07:32:01;;;;;;;11.65;9.35;;;;;;;;;;4983070;28;20423;-82
2022/09/26 07:34:28;;;;;;;12.32;9.63;;;;;;;;;;4981980;28;20430;-83
2022/09/26 07:36:56;;;;;;;11.70;9.63;;;;;;;;;;4980712;28;20924;-83
2022/09/26 07:39:22;;;;;;;14.25;9.63;;;;;;;;;;4981906;28;20439;-83
2022/09/26 07:41:50;;;;;;;13.00;9.13;;;;;;;;;;4983555;28;20442;-83
2022/09/26 07:44:17;;;;;;;13.38;9.75;;;;;;;;;;4983458;28;20433;-82
2022/09/26 07:52:12;;;;;;;12.80;8.60;;;;;;;;;;4983368;28;20399;-81
2022/09/26 07:54:38;;;;;;;9.48;8.07;;;;;;;;;;4983243;28;20438;-83
2022/09/26 07:57:05;;;;;;;11.87;8.03;;;;;;;;;;4979371;28;20448;-82
2022/09/26 07:59:35;;;;;;;8.30;7.20;;;;;;;;;;4964214;28;20807;-83
2022/09/26 08:02:02;;;;;;;9.45;7.82;;;;;;;;;;4964240;28;20924;-83
2022/09/26 08:04:29;;;;;;;10.25;7.32;;;;;;;;;;4983942;28;20798;-83
2022/09/26 08:06:56;;;;;;;11.32;7.90;;;;;;;;;;4982941;28;20450;-83
2022/09/26 08:09:23;;;;;;;8.50;7.30;;;;;;;;;;4981826;28;20453;-83
2022/09/26 08:11:49;;;;;;;8.10;6.60;;;;;;;;;;4983181;28;20421;-82
2022/09/26 08:14:15;;;;;;;10.30;7.10;;;;;;;;;;4979055;28;20426;-83
2022/09/26 08:16:43;;;;;;;10.15;6.80;;;;;;;;;;4982812;28;20438;-83
2022/09/26 08:19:16;;;;;;;9.38;6.50;;;;;;;;;;4981802;28;20429;-82
2022/09/26 08:21:42;;;;;;;9.07;6.70;;;;;;;;;;5013486;28;20462;-83
2022/09/26 08:24:09;;;;;;;10.02;7.13;;;;;;;;;;4982038;28;20434;-83
2022/09/26 08:26:37;;;;;;;7.38;5.85;;;;;;;;;;4983031;28;20441;-82
2022/09/26 08:29:03;;;;;;;10.60;6.40;;;;;;;;;;4981644;28;20477;-83
2022/09/26 08:31:30;;;;;;;9.43;6.60;;;;;;;;;;4983598;28;20423;-83
2022/09/26 08:33:58;;;;;;;8.53;6.10;;;;;;;;;;4981713;28;20426;-83
2022/09/26 08:36:26;;;;;;;8.85;6.40;;;;;;;;;;4984544;28;20816;-82
2022/09/26 08:38:53;;;;;;;7.40;6.60;;;;;;;;;;4980499;28;20452;-84
2022/09/26 08:41:33;;;;;;;9.07;6.32;;;;;;;;;;4983584;28;20516;-83
2022/09/26 08:44:04;;;;;;;9.45;7.07;;;;;;;;;;4983178;28;20422;-83
2022/09/26 08:46:47;;;;;;;9.57;6.80;;;;;;;;;;4982878;28;20426;-81
2022/09/26 08:49:24;;;;;;;9.97;7.33;;;;;;;;;;4982943;28;20426;-82
2022/09/26 08:51:52;;;;;;;8.50;6.63;;;;;;;;;;4981849;28;20432;-81
2022/09/26 08:54:20;;;;;;;8.00;6.50;;;;;;;;;;4981640;28;20426;-83
2022/09/26 08:56:49;;;;;;;7.20;6.10;;;;;;;;;;4981250;28;20823;-83
2022/09/26 08:59:22;;;;;;;10.00;7.73;;;;;;;;;;4980333;28;20458;-85
2022/09/26 09:01:50;;;;;;;9.70;7.93;;;;;;;;;;4983817;28;20441;-81
2022/09/26 09:04:20;;;;;;;12.13;8.10;;;;;;;;;;5013535;28;20426;-83
2022/09/26 09:06:51;;;;;;;9.70;6.75;;;;;;;;;;4981679;28;20422;-81
2022/09/26 09:09:18;;;;;;;10.02;7.53;;;;;;;;;;4981618;28;20429;-82
2022/09/26 09:12:01;;;;;;;9.60;7.32;;;;;;;;;;4985424;28;20426;-82
2022/09/26 09:14:33;;;;;;;8.45;7.22;;;;;;;;;;4983049;28;20423;-82
2022/09/26 09:17:07;;;;;;;11.68;8.43;;;;;;;;;;4980080;28;20422;-82
2022/09/26 09:19:36;;;;;;;10.50;7.55;;;;;;;;;;4982896;28;20621;-81
2022/09/26 09:22:17;;;;;;;9.50;7.05;;;;;;;;;;4982966;28;20446;-80
2022/09/26 09:24:51;;;;;;;8.68;7.70;;;;;;;;;;4980516;28;20438;-82
2022/09/26 09:27:22;;;;;;;9.45;7.70;;;;;;;;;;4980690;28;21029;-81
2022/09/26 09:29:57;;;;;;;8.85;7.50;;;;;;;;;;4980610;28;20890;-84
2022/09/26 09:32:27;;;;;;;11.52;8.32;;;;;;;;;;4983313;28;20904;-82
2022/09/26 09:34:54;;;;;;;10.60;7.90;;;;;;;;;;4981449;28;20423;-82
2022/09/26 09:37:25;;;;;;;10.70;7.60;;;;;;;;;;4982715;28;20440;-82
2022/09/26 09:39:51;;;;;;;9.68;7.28;;;;;;;;;;4983177;28;20421;-82
2022/09/26 09:42:23;;;;;;;10.20;7.50;;;;;;;;;;4983638;28;20814;-83
2022/09/26 09:44:52;;;;;;;9.82;7.47;;;;;;;;;;4983201;28;20418;-83
2022/09/26 09:47:20;;;;;;;7.63;6.82;;;;;;;;;;4982100;28;20419;-82
2022/09/26 09:49:48;;;;;;;11.32;7.80;;;;;;;;;;4983868;28;20478;-80
2022/09/26 09:52:20;;;;;;;9.60;7.30;;;;;;;;;;5014302;28;20455;-81
2022/09/26 09:54:55;;;;;;;8.75;6.80;;;;;;;;;;4981384;28;20451;-81
2022/09/26 09:57:29;;;;;;;11.50;7.35;;;;;;;;;;4982509;28;20927;-80
2022/09/26 10:00:09;;;;;;;9.83;7.47;;;;;;;;;;4980091;28;20534;-83
2022/09/26 10:02:39;;;;;;;8.98;7.03;;;;;;;;;;4985369;28;20439;-83
2022/09/26 10:05:15;;;;;;;8.02;6.90;;;;;;;;;;4989237;28;20419;-83
2022/09/26 10:07:43;;;;;;;10.40;6.15;;;;;;;;;;5017947;28;20931;-82
2022/09/26 10:10:12;;;;;;;10.95;6.82;;;;;;;;;;4985962;28;20523;-84
2022/09/26 10:12:41;;;;;;;8.20;6.78;;;;;;;;;;4985217;28;20925;-83
2022/09/26 10:15:18;;;;;;;8.80;7.00;;;;;;;;;;4985858;28;20494;-83
2022/09/26 10:17:57;;;;;;;9.57;6.78;;;;;;;;;;4985477;28;21031;-82
2022/09/26 10:20:35;;;;;;;12.27;7.00;;;;;;;;;;5018424;28;20434;-83
2022/09/26 10:23:05;;;;;;;8.25;6.18;;;;;;;;;;4987554;28;20425;-83
2022/09/26 10:25:33;;;;;;;8.63;5.63;;;;;;;;;;4985218;28;20459;-82
2022/09/26 10:28:04;;;;;;;12.40;6.30;;;;;;;;;;4985057;28;20854;-83
2022/09/26 10:30:32;;;;;;;7.72;6.32;;;;;;;;;;4985673;28;20428;-83
2022/09/26 10:32:59;;;;;;;9.80;6.50;;;;;;;;;;4985616;28;20860;-82
2022/09/26 10:35:28;;;;;;;7.57;6.23;;;;;;;;;;4985818;28;20431;-82
2022/09/26 10:37:59;;;;;;;9.32;6.40;;;;;;;;;;5017408;28;20420;-82
2022/09/26 10:43:34;;;;;;;9.88;6.47;;;;;;;;;;4985693;28;20424;-82
2022/09/26 10:46:15;;;;;;;15.37;8.00;;;;;;;;;;4982085;28;20442;-82
2022/09/26 10:48:47;;;;;;;11.90;7.90;;;;;;;;;;4985928;28;20425;-82
2022/09/26 10:51:16;;;;;;;9.45;7.50;;;;;;;;;;4983916;28;20921;-84
2022/09/26 10:53:44;;;;;;;9.48;8.05;;;;;;;;;;4985186;28;20480;-82
2022/09/26 10:56:11;;;;;;;11.73;8.13;;;;;;;;;;4983815;28;20846;-82
2022/09/26 10:58:46;;;;;;;10.35;8.45;;;;;;;;;;5014013;28;20434;-82
2022/09/26 11:01:19;;;;;;;11.32;9.10;;;;;;;;;;4983418;28;20928;-82
2022/09/26 11:03:46;;;;;;;11.02;8.70;;;;;;;;;;4982161;28;20518;-83
2022/09/26 11:06:23;;;;;;;12.32;8.88;;;;;;;;;;4984204;28;20422;-82
2022/09/26 11:08:51;;;;;;;15.52;9.30;;;;;;;;;;4983844;28;20812;-83
2022/09/26 11:11:20;;;;;;;12.18;9.35;;;;;;;;;;5015517;28;20831;-82
2022/09/26 11:14:03;;;;;;;13.45;10.13;;;;;;;;;;4982283;28;20426;-83
2022/09/26 11:16:37;;;;;;;14.43;10.20;;;;;;;;;;4983871;28;20424;-82
2022/09/26 11:19:06;;;;;;;12.07;10.32;;;;;;;;;;4982919;28;20430;-81
2022/09/26 11:21:36;;;;;;;11.75;10.55;;;;;;;;;;4985401;28;20431;-81
2022/09/26 11:24:10;;;;;;;14.15;10.68;;;;;;;;;;4984460;28;20431;-81
2022/09/26 11:26:51;;;;;;;13.27;10.27;;;;;;;;;;4983324;28;20435;-81
2022/09/26 11:29:23;;;;;;;12.30;9.57;;;;;;;;;;4982985;28;20798;-82
2022/09/26 11:31:50;;;;;;;11.63;9.52;;;;;;;;;;4985151;28;20480;-83
2022/09/26 11:34:20;;;;;;;12.73;9.80;;;;;;;;;;4982402;28;20788;-81
2022/09/26 11:37:00;;;;;;;9.88;8.88;;;;;;;;;;5016986;28;20419;-83
2022/09/26 11:39:32;;;;;;;12.10;9.30;;;;;;;;;;4986990;28;20431;-82
2022/09/26 11:42:03;;;;;;;9.63;8.52;;;;;;;;;;5013170;28;20436;-82
2022/09/26 11:45:04;;;;;;;12.10;9.40;;;;;;;;;;4981008;28;20799;-82
2022/09/26 11:47:50;;;;;;;11.75;9.50;;;;;;;;;;4984673;28;20511;-82
2022/09/26 11:50:23;;;;;;;10.90;9.15;;;;;;;;;;4983323;28;20436;-81
2022/09/26 11:52:58;;;;;;;10.50;9.10;;;;;;;;;;4983254;28;20428;-81
2022/09/26 11:55:31;;;;;;;12.10;9.30;;;;;;;;;;4983982;28;20441;-81
2022/09/26 11:58:01;;;;;;;10.60;9.10;;;;;;;;;;4984398;28;20512;-81
2022/09/26 12:00:33;;;;;;;12.07;9.02;;;;;;;;;;4982969;28;20853;-81
2022/09/26 12:03:11;;;;;;;10.27;9.27;;;;;;;;;;4984338;28;20429;-80
2022/09/26 12:05:44;;;;;;;10.00;8.90;;;;;;;;;;4985769;28;20945;-82
2022/09/26 12:08:20;;;;;;;10.55;8.82;;;;;;;;;;4984431;28;20462;-81
2022/09/26 12:10:55;;;;;;;10.03;8.33;;;;;;;;;;4985926;28;20505;-81
2022/09/26 12:13:28;;;;;;;9.27;8.32;;;;;;;;;;4982136;28;20839;-80
2022/09/26 12:16:00;;;;;;;9.15;8.05;;;;;;;;;;4983293;28;20420;-81
2022/09/26 12:18:30;;;;;;;11.63;10.00;;;;;;;;;;4984411;28;20431;-80
2022/09/26 12:21:05;;;;;;;10.07;9.00;;;;;;;;;;5013668;28;20431;-81
2022/09/26 12:23:34;;;;;;;11.52;9.38;;;;;;;;;;4996425;28;20486;-81
2022/09/26 12:26:08;;;;;;;10.15;8.35;;;;;;;;;;4978954;28;21020;-81
2022/09/26 12:28:53;;;;;;;12.32;9.85;;;;;;;;;;4983543;28;20438;-81
2022/09/26 12:31:25;;;;;;;14.60;13.10;;;;;;;;;;5013584;28;20414;-81
2022/09/26 12:33:57;;;;;;;12.50;10.07;;;;;;;;;;5015188;28;20429;-80
2022/09/26 12:36:33;;;;;;;10.93;9.65;;;;;;;;;;4984048;28;20446;-81
2022/09/26 12:39:08;;;;;;;11.93;10.70;;;;;;;;;;4984469;28;20427;-81
2022/09/26 12:41:43;;;;;;;12.48;11.18;;;;;;;;;;4985699;28;20989;-81
2022/09/26 12:44:21;;;;;;;13.80;12.40;;;;;;;;;;4986314;28;20500;-81
2022/09/26 12:47:05;;;;;;;23.75;21.15;;;;;;;;;;4982185;28;20429;-81
2022/09/26 12:49:37;;;;;;;12.07;10.48;;;;;;;;;;4983350;28;20440;-81
2022/09/26 12:52:08;;;;;;;11.70;10.60;;;;;;;;;;4983061;28;20425;-80
2022/09/26 12:54:40;;;;;;;13.60;10.07;;;;;;;;;;4985650;28;20419;-81
2022/09/26 12:57:16;;;;;;;10.60;9.60;;;;;;;;;;4983800;28;20430;-81
2022/09/26 12:59:53;;;;;;;11.20;10.03;;;;;;;;;;4983215;28;20432;-82
2022/09/26 13:02:32;;;;;;;14.15;10.70;;;;;;;;;;4983261;28;20426;-81
2022/09/26 13:05:07;;;;;;;11.15;9.98;;;;;;;;;;4983826;28;20855;-82
2022/09/26 13:07:41;;;;;;;12.00;10.70;;;;;;;;;;4981969;28;20538;-81
2022/09/26 13:10:16;;;;;;;14.10;10.68;;;;;;;;;;4981265;28;21005;-81
2022/09/26 13:12:51;;;;;;;13.30;11.30;;;;;;;;;;5013508;28;20430;-82
2022/09/26 13:15:22;;;;;;;14.57;11.18;;;;;;;;;;5015523;28;20493;-81
2022/09/26 13:17:51;;;;;;;12.50;11.30;;;;;;;;;;4970700;28;20801;-81
2022/09/26 13:20:23;;;;;;;11.82;10.70;;;;;;;;;;4963694;28;20428;-82
2022/09/26 13:22:51;;;;;;;11.27;10.07;;;;;;;;;;4978649;28;20429;-81
2022/09/26 13:25:19;;;;;;;13.13;10.35;;;;;;;;;;4983968;28;20440;-82
2022/09/26 13:27:50;;;;;;;14.40;11.20;;;;;;;;;;4982922;28;20428;-81
2022/09/26 13:30:18;;;;;;;11.63;10.50;;;;;;;;;;4985272;28;20424;-81
2022/09/26 13:32:49;;;;;;;11.30;10.20;;;;;;;;;;4980662;28;20431;-82
2022/09/26 13:35:19;;;;;;;16.45;11.32;;;;;;;;;;4984178;28;20432;-81
2022/09/26 13:37:53;;;;;;;12.82;11.25;;;;;;;;;;4985376;28;20840;-82
2022/09/26 13:40:24;;;;;;;12.55;11.25;;;;;;;;;;4986987;28;20916;-82
2022/09/26 13:42:55;;;;;;;10.65;9.55;;;;;;;;;;4984306;28;20419;-81
2022/09/26 13:45:25;;;;;;;10.98;9.70;;;;;;;;;;4985067;28;20522;-81
2022/09/26 13:47:54;;;;;;;11.90;10.50;;;;;;;;;;4985886;28;20424;-81
2022/09/26 13:50:25;;;;;;;12.40;10.60;;;;;;;;;;4987474;28;20445;-82
2022/09/26 13:53:02;;;;;;;13.13;9.85;;;;;;;;;;4985303;28;20418;-81
2022/09/26 13:55:29;;;;;;;13.05;10.70;;;;;;;;;;4985413;28;20430;-81
2022/09/26 13:58:06;;;;;;;12.48;11.27;;;;;;;;;;4983866;28;20438;-82
2022/09/26 14:00:40;;;;;;;10.43;9.50;;;;;;;;;;4983274;28;20430;-82
2022/09/26 14:03:25;;;;;;;11.82;10.52;;;;;;;;;;4986324;28;20437;-82
2022/09/26 14:06:06;;;;;;;13.75;12.40;;;;;;;;;;4985113;28;20443;-81
2022/09/26 14:11:23;;;;;;;11.57;9.97;;;;;;;;;;4985406;28;20482;-82
2022/09/26 14:14:05;;;;;;;11.10;9.95;;;;;;;;;;4986592;28;20435;-82
2022/09/26 14:16:37;;;;;;;15.73;13.15;;;;;;;;;;4984819;28;20469;-81
2022/09/26 14:19:05;;;;;;;13.50;12.10;;;;;;;;;;4987155;28;20438;-81
2022/09/26 14:21:38;;;;;;;12.13;10.82;;;;;;;;;;4985121;28;20500;-81
2022/09/26 14:24:22;;;;;;;10.30;9.30;;;;;;;;;;4987035;28;20434;-81
2022/09/26 14:26:50;;;;;;;10.40;8.60;;;;;;;;;;4983835;28;20461;-81
2022/09/26 14:29:24;;;;;;;11.03;9.93;;;;;;;;;;4983846;28;20505;-81
2022/09/26 14:32:03;;;;;;;11.00;9.90;;;;;;;;;;4985782;28;21000;-82
2022/09/26 14:34:31;;;;;;;10.30;9.13;;;;;;;;;;4984980;28;20428;-82
2022/09/26 14:37:02;;;;;;;10.60;9.63;;;;;;;;;;4985352;28;20411;-81
2022/09/26 14:39:34;;;;;;;11.40;10.40;;;;;;;;;;4987173;28;20445;-81
2022/09/26 14:42:08;;;;;;;11.52;10.32;;;;;;;;;;5014515;28;20418;-81
2022/09/26 14:44:35;;;;;;;10.50;8.82;;;;;;;;;;4986358;28;20800;-82
2022/09/26 14:47:04;;;;;;;10.93;9.93;;;;;;;;;;4983992;28;20411;-82
2022/09/26 14:49:31;;;;;;;12.55;9.70;;;;;;;;;;4983183;28;20424;-82
2022/09/26 14:52:02;;;;;;;10.73;9.60;;;;;;;;;;4983041;28;20444;-82
2022/09/26 14:54:34;;;;;;;10.02;9.10;;;;;;;;;;4983699;28;20506;-82
2022/09/26 14:57:02;;;;;;;11.20;9.60;;;;;;;;;;4985945;28;20430;-81
2022/09/26 14:59:39;;;;;;;11.25;10.10;;;;;;;;;;4983499;28;20442;-83
2022/09/26 15:02:30;;;;;;;10.00;8.85;;;;;;;;;;4983897;28;20423;-82
2022/09/26 15:05:04;;;;;;;11.10;9.40;;;;;;;;;;4981115;28;20442;-82